Terminal Aerodrome Forecast
Issued by NWS Jackson, KY

Home | Current Version | Previous Version | Text Only | Print | Product List | Glossary On
Versions: 1 2 3 4 5 6 7 8 9 10 11 12 13 14 15 16
000
FTUS43 KJKL 281700 RRA
TAFLOZ
TAF
KLOZ 281742Z 2818/2918 22012G18KT P6SM SCT035 BKN050 BKN250
     FM282100 23012KT 6SM -SHRA VCTS BKN030CB OVC050
     FM290200 29005KT P6SM -SHRA BKN025 OVC050
     FM290800 34003KT 6SM BR VCSH BKN030 OVC040
     FM291300 31005KT P6SM FEW035 FEW100=

USA.gov is the U.S. government's official web portal to all federal, state and local government web resources and services.